createdAt,value
2018-02-08T00:02:22.984Z,-3.20
2018-02-08T00:04:49.407Z,-3.20
2018-02-08T00:07:15.895Z,-3.20
2018-02-08T00:09:43.685Z,-3.10
2018-02-08T00:12:10.239Z,-3.20
2018-02-08T00:14:37.423Z,-3.20
2018-02-08T00:17:03.973Z,-3.20
2018-02-08T00:19:31.162Z,-3.20
2018-02-08T00:21:59.848Z,-3.20
2018-02-08T00:24:27.326Z,-3.10
2018-02-08T00:26:54.519Z,-3.10
2018-02-08T00:29:21.056Z,-3.20
2018-02-08T00:31:48.331Z,-3.10
2018-02-08T00:34:15.607Z,-3.00
2018-02-08T00:36:42.165Z,-3.00
2018-02-08T00:39:08.722Z,-3.00
2018-02-08T00:41:35.998Z,-3.00
2018-02-08T00:44:02.557Z,-3.00
2018-02-08T00:46:29.117Z,-3.00
2018-02-08T00:48:55.618Z,-2.90
2018-02-08T00:51:22.110Z,-3.00
2018-02-08T00:53:49.403Z,-3.00
2018-02-08T00:56:16.575Z,-3.10
2018-02-08T00:58:43.770Z,-3.10
2018-02-08T01:01:10.212Z,-3.10
2018-02-08T01:03:36.761Z,-3.10
2018-02-08T01:06:03.916Z,-3.20
2018-02-08T01:08:31.105Z,-3.20
2018-02-08T01:10:57.665Z,-3.30
2018-02-08T01:13:24.844Z,-3.40
2018-02-08T01:15:51.395Z,-3.40
2018-02-08T01:18:17.790Z,-3.40
2018-02-08T01:20:44.235Z,-3.50
2018-02-08T01:23:10.682Z,-3.60
2018-02-08T01:25:37.139Z,-3.60
2018-02-08T01:28:03.601Z,-3.70
2018-02-08T01:30:30.133Z,-3.70
2018-02-08T01:32:57.321Z,-3.80
2018-02-08T01:35:23.862Z,-3.80
2018-02-08T01:37:51.149Z,-3.90
2018-02-08T01:40:18.315Z,-3.90
2018-02-08T01:42:44.769Z,-4.00
2018-02-08T01:45:11.194Z,-4.00
2018-02-08T01:47:37.684Z,-4.00
2018-02-08T01:50:04.110Z,-4.10
2018-02-08T01:52:30.531Z,-4.10
2018-02-08T01:54:56.953Z,-4.20
2018-02-08T01:57:23.501Z,-4.20
2018-02-08T01:59:50.672Z,-4.20
2018-02-08T02:02:17.889Z,-4.10
2018-02-08T02:04:44.405Z,-4.20
2018-02-08T02:07:10.962Z,-4.10
2018-02-08T02:09:38.258Z,-4.00
2018-02-08T02:12:04.794Z,-4.00
2018-02-08T02:14:31.966Z,-3.80
2018-02-08T02:16:59.730Z,-3.70
2018-02-08T02:19:26.311Z,-3.70
2018-02-08T02:21:53.501Z,-3.70
2018-02-08T02:24:20.041Z,-3.70
2018-02-08T02:26:47.245Z,-3.60
2018-02-08T02:29:14.140Z,-3.60
2018-02-08T02:31:41.184Z,-3.60
2018-02-08T02:34:07.708Z,-3.60
2018-02-08T02:36:34.982Z,-3.50
2018-02-08T02:39:02.243Z,-3.50
2018-02-08T02:41:29.531Z,-3.50
2018-02-08T02:43:56.703Z,-3.50
2018-02-08T02:46:23.115Z,-3.50
2018-02-08T02:48:49.623Z,-3.50
2018-02-08T02:51:16.040Z,-3.50
2018-02-08T02:53:42.476Z,-3.50
2018-02-08T02:56:08.984Z,-3.50
2018-02-08T02:58:36.136Z,-3.50
2018-02-08T03:01:03.431Z,-3.40
2018-02-08T03:03:30.619Z,-3.40
2018-02-08T03:05:57.685Z,-3.40
2018-02-08T03:08:24.128Z,-3.40
2018-02-08T03:10:50.584Z,-3.40
2018-02-08T03:13:17.740Z,-3.40
2018-02-08T03:15:44.896Z,-3.40
2018-02-08T03:18:11.384Z,-3.40
2018-02-08T03:20:38.659Z,-3.40
2018-02-08T03:23:05.845Z,-3.40
2018-02-08T03:25:32.281Z,-3.40
2018-02-08T03:27:59.563Z,-3.40
2018-02-08T03:30:26.904Z,-3.50
2018-02-08T03:32:53.394Z,-3.50
2018-02-08T03:35:21.034Z,-3.40
2018-02-08T03:37:47.472Z,-3.50
2018-02-08T03:40:13.902Z,-3.40
2018-02-08T03:42:40.329Z,-3.40
2018-02-08T03:45:07.488Z,-3.40
2018-02-08T03:47:33.970Z,-3.40
2018-02-08T03:50:01.129Z,-3.40
2018-02-08T03:52:28.289Z,-3.30
2018-02-08T03:54:54.689Z,-3.40
2018-02-08T03:57:21.194Z,-3.30
2018-02-08T03:59:47.618Z,-3.30
2018-02-08T04:02:14.070Z,-3.30
2018-02-08T04:04:40.482Z,-3.30
2018-02-08T04:07:07.665Z,-3.20
2018-02-08T04:09:34.945Z,-3.10
2018-02-08T04:12:01.499Z,-3.20
2018-02-08T04:14:28.925Z,-3.10
2018-02-08T04:16:55.436Z,-3.10
2018-02-08T04:19:21.992Z,-3.10
2018-02-08T04:21:49.178Z,-3.10
2018-02-08T04:24:15.690Z,-3.20
2018-02-08T04:26:42.097Z,-3.20
2018-02-08T04:29:09.495Z,-3.20
2018-02-08T04:31:36.011Z,-3.30
2018-02-08T04:34:03.285Z,-3.40
2018-02-08T04:36:30.489Z,-3.50
2018-02-08T04:39:09.290Z,-3.50
2018-02-08T04:41:48.018Z,-3.50
2018-02-08T04:44:27.566Z,-3.70
2018-02-08T04:47:05.993Z,-3.80
2018-02-08T04:49:32.398Z,-3.80
2018-02-08T04:51:58.823Z,-3.90
2018-02-08T04:54:25.266Z,-3.90
2018-02-08T04:56:51.691Z,-3.90
2018-02-08T04:59:18.167Z,-4.00
2018-02-08T05:01:45.440Z,-4.10
2018-02-08T05:04:12.714Z,-4.20
2018-02-08T05:06:39.170Z,-4.20
2018-02-08T05:09:06.340Z,-4.40
2018-02-08T05:11:33.617Z,-4.40
2018-02-08T05:14:00.047Z,-4.40
2018-02-08T05:16:26.495Z,-4.40
2018-02-08T05:18:53.683Z,-4.40
2018-02-08T05:21:20.855Z,-4.40
2018-02-08T05:23:47.436Z,-4.40
2018-02-08T05:26:13.888Z,-4.40
2018-02-08T05:28:41.166Z,-4.20
2018-02-08T05:31:08.333Z,-4.20
2018-02-08T05:33:35.481Z,-4.10
2018-02-08T05:36:01.963Z,-4.20
2018-02-08T05:38:29.259Z,-4.00
2018-02-08T05:40:55.795Z,-4.10
2018-02-08T05:43:22.971Z,-4.00
2018-02-08T05:45:49.526Z,-4.00
2018-02-08T05:48:16.700Z,-3.90
2018-02-08T05:50:43.150Z,-3.90
2018-02-08T05:53:10.330Z,-3.70
2018-02-08T05:55:36.751Z,-3.80
2018-02-08T05:58:03.885Z,-3.70
2018-02-08T06:00:30.297Z,-3.70
2018-02-08T06:02:57.584Z,-3.50
2018-02-08T06:05:24.855Z,-3.50
2018-02-08T06:07:52.060Z,-3.50
2018-02-08T06:10:18.572Z,-3.50
2018-02-08T06:12:46.484Z,-3.40
2018-02-08T06:15:12.912Z,-3.40
2018-02-08T06:17:39.490Z,-3.40
2018-02-08T06:20:06.404Z,-3.30
2018-02-08T06:22:32.809Z,-3.40
2018-02-08T06:24:59.989Z,-3.30
2018-02-08T06:27:26.431Z,-3.40
2018-02-08T06:29:53.608Z,-3.30
2018-02-08T06:32:20.778Z,-3.30
2018-02-08T06:34:47.974Z,-3.30
2018-02-08T06:37:14.406Z,-3.30
2018-02-08T06:39:41.686Z,-3.30
2018-02-08T06:42:08.869Z,-3.30
2018-02-08T06:44:35.344Z,-3.30
2018-02-08T06:47:01.805Z,-3.30
2018-02-08T06:49:28.209Z,-3.20
2018-02-08T06:51:55.401Z,-3.10
2018-02-08T06:54:21.844Z,-3.10
2018-02-08T06:56:48.986Z,-3.00
2018-02-08T06:59:19.370Z,-3.10
2018-02-08T07:01:47.358Z,-3.00
2018-02-08T07:04:14.491Z,-3.00
2018-02-08T07:06:40.986Z,-3.00
2018-02-08T07:09:07.425Z,-2.90
2018-02-08T07:11:34.589Z,-2.90
2018-02-08T07:14:01.492Z,-2.90
2018-02-08T07:16:28.042Z,-2.90
2018-02-08T07:18:54.574Z,-2.90
2018-02-08T07:21:21.030Z,-2.80
2018-02-08T07:23:47.430Z,-2.80
2018-02-08T07:26:13.970Z,-2.90
2018-02-08T07:28:40.423Z,-2.90
2018-02-08T07:31:07.697Z,-2.90
2018-02-08T07:33:34.255Z,-2.90
2018-02-08T07:36:00.712Z,-2.90
2018-02-08T07:38:27.892Z,-2.80
2018-02-08T07:40:54.442Z,-2.80
2018-02-08T07:43:21.716Z,-2.70
2018-02-08T07:45:48.135Z,-2.80
2018-02-08T07:48:14.629Z,-2.70
2018-02-08T07:50:41.786Z,-2.60
2018-02-08T07:53:08.973Z,-2.50
2018-02-08T07:55:36.128Z,-2.40
2018-02-08T07:58:03.325Z,-2.40
2018-02-08T08:00:29.878Z,-2.40
2018-02-08T08:02:56.846Z,-2.30
2018-02-08T08:05:23.289Z,-2.30
2018-02-08T08:07:50.482Z,-2.20
2018-02-08T08:10:17.029Z,-2.30
2018-02-08T08:12:44.197Z,-2.20
2018-02-08T08:15:11.475Z,-2.20
2018-02-08T08:17:38.672Z,-2.10
2018-02-08T08:20:05.338Z,-2.20
2018-02-08T08:22:31.787Z,-2.10
2018-02-08T08:24:58.734Z,-2.10
2018-02-08T08:27:25.239Z,-2.00
2018-02-08T08:29:51.661Z,-1.90
2018-02-08T08:32:21.885Z,-1.90
2018-02-08T08:34:49.163Z,-1.80
2018-02-08T08:37:15.721Z,-1.90
2018-02-08T08:39:42.982Z,-1.80
2018-02-08T08:42:10.270Z,-1.70
2018-02-08T08:44:37.481Z,-1.70
2018-02-08T08:47:03.908Z,-1.70
2018-02-08T08:49:30.348Z,-1.60
2018-02-08T08:51:57.625Z,-1.50
2018-02-08T08:54:24.813Z,-1.50
2018-02-08T08:56:51.355Z,-1.50
2018-02-08T08:59:18.629Z,-1.50
2018-02-08T09:01:45.907Z,-1.60
2018-02-08T09:04:13.177Z,-1.60
2018-02-08T09:06:40.454Z,-1.50
2018-02-08T09:09:07.726Z,-1.40
2018-02-08T09:11:34.907Z,-1.30
2018-02-08T09:14:01.354Z,-1.30
2018-02-08T09:16:28.542Z,-1.30
2018-02-08T09:18:55.091Z,-1.30
2018-02-08T09:21:21.541Z,-1.30
2018-02-08T09:23:48.701Z,-1.30
2018-02-08T09:26:15.900Z,-1.30
2018-02-08T09:28:42.314Z,-1.30
2018-02-08T09:31:08.743Z,-1.30
2018-02-08T09:33:35.166Z,-1.20
2018-02-08T09:36:01.608Z,-1.20
2018-02-08T09:38:28.767Z,-1.10
2018-02-08T09:40:55.933Z,-1.10
2018-02-08T09:43:23.123Z,-1.00
2018-02-08T09:45:50.984Z,-0.90
2018-02-08T09:48:17.467Z,-0.90
2018-02-08T09:50:44.666Z,-0.80
2018-02-08T09:53:11.110Z,-0.80
2018-02-08T09:55:37.510Z,-0.70
2018-02-08T09:58:03.955Z,-0.70
2018-02-08T10:00:30.453Z,-0.70
2018-02-08T10:02:57.650Z,-0.60
2018-02-08T10:05:24.093Z,-0.60
2018-02-08T10:07:51.367Z,-0.40
2018-02-08T10:10:17.928Z,-0.40
2018-02-08T10:12:45.306Z,-0.30
2018-02-08T10:15:11.748Z,-0.30
2018-02-08T10:17:39.238Z,-0.10
2018-02-08T10:20:05.796Z,-0.10
2018-02-08T10:22:33.684Z,0.10
2018-02-08T10:25:00.247Z,0.00
2018-02-08T10:27:26.647Z,0.00
2018-02-08T10:29:53.137Z,0.00
2018-02-08T10:32:20.330Z,0.10
2018-02-08T10:34:47.535Z,0.10
2018-02-08T10:37:14.074Z,0.10
2018-02-08T10:39:40.550Z,0.20
2018-02-08T10:42:08.038Z,0.30
2018-02-08T10:44:34.473Z,0.40
2018-02-08T10:47:00.884Z,0.40
2018-02-08T10:49:27.364Z,0.50
2018-02-08T10:51:53.919Z,0.50
2018-02-08T10:54:21.787Z,0.70
2018-02-08T10:56:48.238Z,0.70
2018-02-08T10:59:14.644Z,0.70
2018-02-08T11:01:41.112Z,0.80
2018-02-08T11:04:07.532Z,0.80
2018-02-08T11:06:33.984Z,0.90
2018-02-08T11:09:01.189Z,1.10
2018-02-08T11:11:27.628Z,1.10
2018-02-08T11:13:54.889Z,1.20
2018-02-08T11:16:22.063Z,1.20
2018-02-08T11:18:49.215Z,1.20
2018-02-08T11:21:16.396Z,1.20
2018-02-08T11:23:43.530Z,1.20
2018-02-08T11:26:13.920Z,1.20
2018-02-08T11:28:40.681Z,1.20
2018-02-08T11:31:07.955Z,1.10
2018-02-08T11:33:35.113Z,1.00
2018-02-08T11:36:02.254Z,1.00
2018-02-08T11:38:28.673Z,0.90
2018-02-08T11:40:55.071Z,0.90
2018-02-08T11:43:22.466Z,0.90
2018-02-08T11:45:48.902Z,1.00
2018-02-08T11:48:15.306Z,1.20
2018-02-08T11:50:41.732Z,1.50
2018-02-08T11:53:08.209Z,1.70
2018-02-08T11:55:34.665Z,1.90
2018-02-08T11:58:01.843Z,1.90
2018-02-08T12:00:28.291Z,1.90
2018-02-08T12:02:55.568Z,1.70
2018-02-08T12:05:22.842Z,1.60
2018-02-08T12:07:50.003Z,1.50
2018-02-08T12:10:17.288Z,1.40
2018-02-08T12:12:44.447Z,1.30
2018-02-08T12:15:11.736Z,1.20
2018-02-08T12:17:39.011Z,1.10
2018-02-08T12:20:06.015Z,1.10
2018-02-08T12:22:32.443Z,1.10
2018-02-08T12:24:58.995Z,1.00
2018-02-08T12:27:26.266Z,0.90
2018-02-08T12:29:52.720Z,0.90
2018-02-08T12:32:19.994Z,0.80
2018-02-08T12:34:47.170Z,0.80
2018-02-08T12:37:13.591Z,0.80
2018-02-08T12:39:40.013Z,0.80
2018-02-08T12:42:06.416Z,0.80
2018-02-08T12:44:33.565Z,0.80
2018-02-08T12:47:00.005Z,0.80
2018-02-08T12:49:26.518Z,0.80
2018-02-08T12:51:53.736Z,0.90
2018-02-08T12:54:20.248Z,0.90
2018-02-08T12:56:48.181Z,0.90
2018-02-08T12:59:14.647Z,0.90
2018-02-08T13:01:41.153Z,0.90
2018-02-08T13:04:08.428Z,0.80
2018-02-08T13:06:34.885Z,0.80
2018-02-08T13:09:01.272Z,0.70
2018-02-08T13:11:27.722Z,0.70
2018-02-08T13:13:54.156Z,0.60
2018-02-08T13:16:20.707Z,0.60
2018-02-08T13:18:47.985Z,0.60
2018-02-08T13:21:14.539Z,0.60
2018-02-08T13:23:41.813Z,0.50
2018-02-08T13:26:09.101Z,0.50
2018-02-08T13:28:37.590Z,0.50
2018-02-08T13:31:04.864Z,0.40
2018-02-08T13:33:32.018Z,0.40
2018-02-08T13:35:59.226Z,0.40
2018-02-08T13:38:25.675Z,0.40
2018-02-08T13:40:52.150Z,0.40
2018-02-08T13:43:18.679Z,0.40
2018-02-08T13:45:45.941Z,0.30
2018-02-08T13:48:19.363Z,0.30
2018-02-08T13:51:01.430Z,0.30
2018-02-08T13:53:45.620Z,0.30
2018-02-08T13:56:29.542Z,0.20
2018-02-08T13:58:56.837Z,0.10
2018-02-08T14:01:30.044Z,0.10
2018-02-08T14:03:57.317Z,0.00
2018-02-08T14:06:24.594Z,0.00
2018-02-08T14:08:51.042Z,0.00
2018-02-08T14:11:18.628Z,-0.10
2018-02-08T14:13:45.819Z,-0.20
2018-02-08T14:16:12.264Z,-0.20
2018-02-08T14:18:38.815Z,-0.20
2018-02-08T14:21:06.089Z,-0.40
2018-02-08T14:23:33.364Z,-0.40
2018-02-08T14:26:00.844Z,-0.50
2018-02-08T14:28:28.668Z,-0.50
2018-02-08T14:30:55.187Z,-0.50
2018-02-08T14:33:23.054Z,-0.50
2018-02-08T14:35:49.634Z,-0.50
2018-02-08T14:38:16.915Z,-0.60
2018-02-08T14:40:43.364Z,-0.60
2018-02-08T14:43:10.640Z,-0.60
2018-02-08T14:45:38.387Z,-0.60
2018-02-08T14:48:04.985Z,-0.60
2018-02-08T14:50:31.398Z,-0.60
2018-02-08T14:52:57.995Z,-0.50
2018-02-08T14:55:25.271Z,-0.50
2018-02-08T14:57:53.260Z,-0.40
2018-02-08T15:00:20.504Z,-0.40
2018-02-08T15:02:46.990Z,-0.40
2018-02-08T15:05:14.149Z,-0.40
2018-02-08T15:07:41.439Z,-0.40
2018-02-08T15:10:08.661Z,-0.40
2018-02-08T15:12:35.477Z,-0.40
2018-02-08T15:15:02.734Z,-0.50
2018-02-08T15:17:30.128Z,-0.50
2018-02-08T15:19:56.692Z,-0.50
2018-02-08T15:22:23.125Z,-0.60
2018-02-08T15:24:50.330Z,-0.60
2018-02-08T15:27:17.041Z,-0.60
2018-02-08T15:29:44.256Z,-0.60
2018-02-08T15:32:11.421Z,-0.70
2018-02-08T15:34:38.608Z,-0.80
2018-02-08T15:37:05.054Z,-0.80
2018-02-08T15:39:35.796Z,-0.80
2018-02-08T15:42:03.076Z,-0.80
2018-02-08T15:44:29.738Z,-0.90
2018-02-08T15:46:56.184Z,-0.90
2018-02-08T15:49:22.749Z,-0.90
2018-02-08T15:51:49.933Z,-1.00
2018-02-08T15:54:16.385Z,-1.00
2018-02-08T15:56:42.940Z,-1.00
2018-02-08T15:59:09.362Z,-1.00
2018-02-08T16:01:35.949Z,-1.10
2018-02-08T16:04:03.709Z,-1.10
2018-02-08T16:06:30.842Z,-1.20
2018-02-08T16:08:57.294Z,-1.20
2018-02-08T16:11:23.821Z,-1.20
2018-02-08T16:13:51.104Z,-1.20
2018-02-08T16:16:19.597Z,-1.20
2018-02-08T16:18:46.874Z,-1.30
2018-02-08T16:21:13.334Z,-1.30
2018-02-08T16:23:39.754Z,-1.40
2018-02-08T16:26:06.194Z,-1.40
2018-02-08T16:28:32.658Z,-1.40
2018-02-08T16:30:59.254Z,-1.50
2018-02-08T16:33:26.426Z,-1.40
2018-02-08T16:35:53.707Z,-1.50
2018-02-08T16:38:20.179Z,-1.50
2018-02-08T16:40:47.203Z,-1.50
2018-02-08T16:43:14.380Z,-1.50
2018-02-08T16:45:41.672Z,-1.50
2018-02-08T16:48:09.256Z,-1.50
2018-02-08T16:50:37.125Z,-1.50
2018-02-08T16:53:03.713Z,-1.50
2018-02-08T16:55:30.361Z,-1.60
2018-02-08T16:57:57.639Z,-1.60
2018-02-08T17:00:24.400Z,-1.60
2018-02-08T17:02:51.680Z,-1.70
2018-02-08T17:05:18.418Z,-1.70
2018-02-08T17:07:45.712Z,-1.70
2018-02-08T17:10:12.988Z,-1.80
2018-02-08T17:12:39.440Z,-1.80
2018-02-08T17:15:06.819Z,-1.80
2018-02-08T17:17:33.476Z,-1.80
2018-02-08T17:20:00.445Z,-1.80
2018-02-08T17:22:28.982Z,-1.80
2018-02-08T17:24:55.791Z,-1.90
2018-02-08T17:27:24.724Z,-1.90
2018-02-08T17:29:52.800Z,-1.90
2018-02-08T17:32:19.948Z,-1.80
2018-02-08T17:34:46.434Z,-1.80
2018-02-08T17:37:13.632Z,-1.80
2018-02-08T17:39:40.037Z,-1.90
2018-02-08T17:42:06.529Z,-1.80
2018-02-08T17:44:33.806Z,-1.90
2018-02-08T17:47:00.257Z,-1.80
2018-02-08T17:49:27.406Z,-1.80
2018-02-08T17:51:53.888Z,-1.80
2018-02-08T17:54:20.446Z,-1.80
2018-02-08T17:56:47.006Z,-1.80
2018-02-08T17:59:13.442Z,-1.80
2018-02-08T18:01:39.938Z,-1.80
2018-02-08T18:04:06.478Z,-1.80
2018-02-08T18:06:32.979Z,-1.80
2018-02-08T18:08:59.403Z,-1.80
2018-02-08T18:11:25.915Z,-1.80
2018-02-08T18:13:52.401Z,-1.80
2018-02-08T18:16:19.606Z,-1.80
2018-02-08T18:18:46.137Z,-1.80
2018-02-08T18:21:12.690Z,-1.80
2018-02-08T18:23:39.868Z,-1.80
2018-02-08T18:26:06.327Z,-1.90
2018-02-08T18:28:32.883Z,-1.90
2018-02-08T18:30:59.295Z,-1.80
2018-02-08T18:33:26.531Z,-1.80
2018-02-08T18:35:53.014Z,-1.90
2018-02-08T18:38:20.299Z,-1.80
2018-02-08T18:40:46.720Z,-1.90
2018-02-08T18:43:13.250Z,-1.80
2018-02-08T18:45:39.706Z,-1.80
2018-02-08T18:48:06.213Z,-1.80
2018-02-08T18:50:32.639Z,-1.80
2018-02-08T18:52:59.282Z,-1.80
2018-02-08T18:55:25.941Z,-1.80
2018-02-08T18:57:52.701Z,-1.80
2018-02-08T19:00:20.014Z,-1.80
2018-02-08T19:02:46.543Z,-1.80
2018-02-08T19:05:12.976Z,-1.70
2018-02-08T19:07:40.185Z,-1.70
2018-02-08T19:10:06.635Z,-1.80
2018-02-08T19:12:33.177Z,-1.70
2018-02-08T19:14:59.653Z,-1.80
2018-02-08T19:17:26.136Z,-1.80
2018-02-08T19:19:53.363Z,-1.90
2018-02-08T19:22:20.540Z,-1.90
2018-02-08T19:24:47.096Z,-1.90
2018-02-08T19:27:14.297Z,-2.00
2018-02-08T19:29:40.827Z,-2.10
2018-02-08T19:32:08.202Z,-2.20
2018-02-08T19:34:34.862Z,-2.20
2018-02-08T19:37:01.627Z,-2.30
2018-02-08T19:39:28.187Z,-2.40
2018-02-08T19:41:55.602Z,-2.60
2018-02-08T19:44:22.118Z,-2.70
2018-02-08T19:46:48.678Z,-2.70
2018-02-08T19:49:15.236Z,-2.80
2018-02-08T19:51:42.404Z,-3.00
2018-02-08T19:54:09.595Z,-3.10
2018-02-08T19:56:36.244Z,-3.10
2018-02-08T19:59:02.905Z,-3.10
2018-02-08T20:01:29.665Z,-3.20
2018-02-08T20:03:56.430Z,-3.20
2018-02-08T20:06:23.190Z,-3.30
2018-02-08T20:08:50.481Z,-3.40
2018-02-08T20:11:17.282Z,-3.40
2018-02-08T20:13:43.889Z,-3.40
2018-02-08T20:16:10.417Z,-3.50
2018-02-08T20:18:37.929Z,-3.50
2018-02-08T20:21:04.445Z,-3.50
2018-02-08T20:23:31.145Z,-3.50
2018-02-08T20:25:58.728Z,-3.60
2018-02-08T20:28:25.800Z,-3.60
2018-02-08T20:30:58.442Z,-3.60
2018-02-08T20:33:25.054Z,-3.70
2018-02-08T20:35:52.429Z,-3.70
2018-02-08T20:38:19.087Z,-3.80
2018-02-08T20:40:47.563Z,-3.80
2018-02-08T20:43:20.392Z,-3.80
2018-02-08T20:45:47.045Z,-3.90
2018-02-08T20:48:14.486Z,-3.90
2018-02-08T20:50:41.800Z,-3.90
2018-02-08T20:53:09.267Z,-4.00
2018-02-08T20:55:36.312Z,-3.90
2018-02-08T20:58:03.399Z,-4.00
2018-02-08T21:00:29.977Z,-4.00
2018-02-08T21:02:56.457Z,-4.00
2018-02-08T21:05:22.956Z,-4.00
2018-02-08T21:07:50.328Z,-4.00
2018-02-08T21:10:16.892Z,-4.10
2018-02-08T21:12:43.586Z,-4.10
2018-02-08T21:15:10.860Z,-4.10
2018-02-08T21:17:38.135Z,-4.10
2018-02-08T21:20:05.584Z,-4.20
2018-02-08T21:22:32.085Z,-4.20
2018-02-08T21:24:59.205Z,-4.20
2018-02-08T21:27:26.398Z,-4.20
2018-02-08T21:29:53.593Z,-4.20
2018-02-08T21:32:20.144Z,-4.20
2018-02-08T21:34:47.418Z,-4.30
2018-02-08T21:37:14.581Z,-4.30
2018-02-08T21:39:41.865Z,-4.40
2018-02-08T21:42:08.425Z,-4.40
2018-02-08T21:44:34.875Z,-4.40
2018-02-08T21:47:02.158Z,-4.50
2018-02-08T21:49:29.224Z,-4.50
2018-02-08T21:51:55.782Z,-4.50
2018-02-08T21:54:23.366Z,-4.50
2018-02-08T21:56:50.542Z,-4.50
2018-02-08T21:59:17.029Z,-4.60
2018-02-08T22:01:43.551Z,-4.50
2018-02-08T22:04:10.824Z,-4.60
2018-02-08T22:06:37.385Z,-4.60
2018-02-08T22:09:04.658Z,-4.70
2018-02-08T22:11:31.931Z,-4.70
2018-02-08T22:13:59.656Z,-4.70
2018-02-08T22:16:26.108Z,-4.70
2018-02-08T22:18:53.166Z,-4.70
2018-02-08T22:21:19.593Z,-4.80
2018-02-08T22:23:46.838Z,-4.80
2018-02-08T22:26:13.537Z,-4.80
2018-02-08T22:28:40.094Z,-4.90
2018-02-08T22:31:06.626Z,-4.90
2018-02-08T22:33:33.208Z,-4.90
2018-02-08T22:36:00.485Z,-5.00
2018-02-08T22:38:28.174Z,-5.00
2018-02-08T22:40:54.616Z,-5.00
2018-02-08T22:43:21.910Z,-5.00
2018-02-08T22:45:48.462Z,-5.00
2018-02-08T22:48:14.865Z,-5.00
2018-02-08T22:50:41.368Z,-5.10
2018-02-08T22:53:08.561Z,-5.10
2018-02-08T22:55:34.978Z,-5.10
2018-02-08T22:58:02.166Z,-5.10
2018-02-08T23:00:29.442Z,-5.10
2018-02-08T23:02:56.626Z,-5.10
2018-02-08T23:05:23.079Z,-5.10
2018-02-08T23:07:49.628Z,-5.10
2018-02-08T23:10:16.902Z,-5.20
2018-02-08T23:12:44.069Z,-5.20
2018-02-08T23:15:11.355Z,-5.20
2018-02-08T23:17:38.627Z,-5.30
2018-02-08T23:20:08.832Z,-5.20
2018-02-08T23:22:35.251Z,-5.30
2018-02-08T23:25:01.776Z,-5.20
2018-02-08T23:27:29.052Z,-5.30
2018-02-08T23:29:56.325Z,-5.30
2018-02-08T23:32:23.599Z,-5.30
2018-02-08T23:34:50.873Z,-5.30
2018-02-08T23:37:18.807Z,-5.30
2018-02-08T23:39:45.320Z,-5.30
2018-02-08T23:42:12.507Z,-5.20
2018-02-08T23:44:38.957Z,-5.20
2018-02-08T23:47:05.506Z,-5.20
2018-02-08T23:49:32.679Z,-5.00
2018-02-08T23:51:59.852Z,-4.90
2018-02-08T23:54:26.332Z,-5.00
2018-02-08T23:56:52.765Z,-4.90
2018-02-08T23:59:19.241Z,-4.80
